Flight Track Log - Related Links

Times and Time Zones

All times are in EDT time to prevent confusion due to time zone crossing. See the CSZ9167 flight status page for this flight to view local times or setup timezone preferences in your user account.

Time Position Orientation Groundspeed Altitude Reporting Facility
EDT Latitude Longitude Course Direction KTS MPH feet Rate Location/Type
Thu 07:37:00 PM 30.0308 108.1231 76° East  Level Estimated
Thu 07:38:00 PM 30.0583 108.2583 77° East  Level Estimated
Thu 07:39:00 PM 30.0856 108.3935 77° East  Level Estimated
Thu 07:40:00 PM 30.1128 108.5289 77° East  Level Estimated
Thu 07:41:00 PM 30.1399 108.6643 77° East  Level Estimated
Thu 07:42:00 PM 30.1668 108.7998 77° East  Level Estimated
Thu 07:43:00 PM 30.1936 108.9353 77° East  Level Estimated
Thu 07:44:00 PM 30.2203 109.0710 77° East  Level Estimated
Thu 07:45:00 PM 30.2468 109.2067 77° East  Level Estimated
Thu 07:46:00 PM 30.2731 109.3425 77° East  Level Estimated
Thu 07:47:00 PM 30.2994 109.4783 77° East  Level Estimated
Thu 07:48:00 PM 30.3255 109.6143 77° East  Level Estimated
Thu 07:49:00 PM 30.3514 109.7503 77° East  Level Estimated
Thu 07:50:00 PM 30.3772 109.8863 78° East  Level Estimated
Thu 07:51:00 PM 30.4029 110.0225 78° East  Level Estimated
Thu 07:52:00 PM 30.4284 110.1587 78° East  Level Estimated
Thu 07:53:00 PM 30.4538 110.2950 78° East  Level Estimated
Thu 07:54:00 PM 30.4791 110.4313 78° East  Level Estimated
Thu 07:55:00 PM 30.5042 110.5678 78° East  Level Estimated
Thu 07:56:00 PM 30.5291 110.7042 78° East  Level Estimated
Thu 07:57:00 PM 30.5539 110.8408 78° East  Level Estimated
Thu 07:58:00 PM 30.5786 110.9775 78° East  Level Estimated
Thu 07:59:00 PM 30.6031 111.1142 78° East  Level Estimated
Thu 08:00:00 PM 30.6275 111.2509 78° East  Level Estimated
Thu 08:01:00 PM 30.6518 111.3878 78° East  Level Estimated
Thu 08:02:00 PM 30.6759 111.5247 78° East  Level Estimated
Thu 08:03:00 PM 30.6999 111.6617 78° East  Level Estimated
Thu 08:04:00 PM 30.7237 111.7987 79° East  Level Estimated
Thu 08:05:00 PM 30.7473 111.9358 79° East  Level Estimated
Thu 08:06:00 PM 30.7709 112.0730 79° East  Level Estimated
Thu 08:07:00 PM 30.7943 112.2103 79° East  Level Estimated
Thu 08:08:00 PM 30.8175 112.3476 79° East  Level Estimated
Thu 08:09:00 PM 30.8406 112.4850 79° East  Level Estimated
Thu 08:10:00 PM 30.8635 112.6224 79° East  Level Estimated
Thu 08:11:00 PM 30.8863 112.7599 79° East  Level Estimated
Thu 08:12:00 PM 30.9090 112.8975 79° East  Level Estimated
Thu 08:13:00 PM 30.9315 113.0352 79° East  Level Estimated
Thu 08:14:00 PM 30.9539 113.1729 79° East  Level Estimated
Thu 08:15:00 PM 30.9761 113.3107 79° East  Level Estimated
Thu 08:16:00 PM 30.9982 113.4485 79° East  Level Estimated
Thu 08:17:00 PM 31.0201 113.5864 79° East  Level Estimated
Thu 08:18:00 PM 31.0419 113.7243 80° East  Level Estimated
Thu 08:19:00 PM 31.0635 113.8624 80° East  Level Estimated
Thu 08:20:00 PM 31.0850 114.0005 80° East  Level Estimated
Thu 08:21:00 PM 31.1063 114.1386 80° East  Level Estimated
Thu 08:22:00 PM 31.1275 114.2768 80° East  Level Estimated
Thu 08:23:00 PM 31.1486 114.4151 80° East  Level Estimated
Thu 08:24:00 PM 31.1695 114.5535 80° East  Level Estimated
Thu 08:25:00 PM 31.1902 114.6918 80° East  Level Estimated
Thu 08:26:00 PM 31.2108 114.8303 80° East  Level Estimated
Thu 08:27:00 PM 31.2313 114.9688 80° East  Level Estimated
Thu 08:28:00 PM 31.2516 115.1074 80° East  Level Estimated
Thu 08:29:00 PM 31.2717 115.2460 80° East  Level Estimated
Thu 08:30:00 PM 31.2917 115.3847 80° East  Level Estimated
Thu 08:31:00 PM 31.3116 115.5235 80° East  Level Estimated
Thu 08:32:00 PM 31.3313 115.6623 81° East  Level Estimated
Thu 08:33:00 PM 31.3509 115.8012 81° East  Level Estimated
Thu 08:34:00 PM 31.3703 115.9401 81° East  Level Estimated
Thu 08:35:00 PM 31.3895 116.0791 81° East  Level Estimated
Thu 08:36:00 PM 31.4086 116.2181 81° East  Level Estimated
Thu 08:37:00 PM 31.4276 116.3572 81° East  Level Estimated
Thu 08:38:00 PM 31.4464 116.4964 81° East  Level Estimated
Thu 08:39:00 PM 31.4651 116.6356 81° East  Level Estimated
Thu 08:40:00 PM 31.4836 116.7749 81° East  Level Estimated
Thu 08:41:00 PM 31.5019 116.9142 81° East  Level Estimated
Thu 08:42:00 PM 31.5201 117.0536 81° East  Level Estimated
Thu 08:43:00 PM 31.5382 117.1930 81° East  Level Estimated
Thu 08:44:00 PM 31.5561 117.3325 81° East  Level Estimated
Thu 08:45:00 PM 31.5738 117.4720 81° East  Level Estimated
Thu 08:46:00 PM 31.5914 117.6116 82° East  Level Estimated
Thu 08:47:00 PM 31.6089 117.7512 82° East  Level Estimated
Thu 08:48:00 PM 31.6262 117.8909 82° East  Level Estimated
Thu 08:49:00 PM 31.6433 118.0307 82° East  Level Estimated
Thu 08:50:00 PM 31.6603 118.1705 82° East  Level Estimated
Thu 08:51:00 PM 31.6772 118.3103 82° East  Level Estimated
Thu 08:52:00 PM 31.6938 118.4502 82° East  Level Estimated
Thu 08:53:00 PM 31.7104 118.5902 82° East  Level Estimated
Thu 08:54:00 PM 31.7268 118.7302 82° East  Level Estimated
Thu 08:55:00 PM 31.7421 118.8620 82° East  Level Estimated
Thu 08:56:00 PM 31.7421 118.8620 North  Level Estimated
Thu 08:57:00 PM 31.7421 118.8620 North  Level Estimated
Thu 08:58:00 PM 31.7421 118.8620 North  Level Estimated
Thu 08:59:00 PM 31.7421 118.8620 North  Level Estimated
Thu 09:00:00 PM 31.7421 118.8620 North  Level Estimated
Thu 09:01:00 PM 31.7421 118.8620 North  Level Estimated
Thu 09:02:00 PM 31.7421 118.8620 North  Level Estimated
Thu 09:03:00 PM 31.7421 118.8620 North  Level Estimated
Thu 09:04:00 PM 31.7421 118.8620 North  Level Estimated
Thu 09:05:00 PM 31.7421 118.8620 North  Level Estimated
Thu 09:06:00 PM 31.7421 118.8620 North  Level Estimated
Thu 09:07:00 PM 31.7421 118.8620 North  Level Estimated
Thu 09:08:00 PM 31.7421 118.8620 North  Level Estimated
Thu 09:09:00 PM 31.7421 118.8620 North  Level Estimated
Thu 09:10:00 PM 31.7421 118.8620 North  Level Estimated
Thu 09:11:00 PM 31.7421 118.8620 North  Level Estimated

Login

Don't have an account? Register now (free) for customized features, flight alerts, and more!